Terminal Aerodrome Forecast
Issued by NWS

Home | Current Version | Previous Version | Graphics & Text | Print | Product List | Glossary On
Versions: 1 2 3 4 5 6 7 8 9 10 11 12 13 14 15 16 17 18 19
000
FTUS43 KGRB 160535
TAFAUW
TAF
KAUW 160535Z 1606/1706 00000KT P6SM BKN250
      TEMPO 1608/1612 4SM BR
     FM161500 VRB03KT 6SM BR FEW100 BKN200
     FM162200 11003KT 5SM BR SCT012 OVC025
     FM170100 09006KT 1 1/2SM -SN SCT004 OVC009
      TEMPO 1702/1706 3/4SM -FZRAPL OVC004=

USA.gov is the U.S. government's official web portal to all federal, state and local government web resources and services.